Aviation Digital Data Service (ADDS)

Output produced by METARs form (0138 UTC 19 November 2018)
found at http://www.aviationweather.gov/metar/data/
 
EGPK 190050Z 07003KT 9999 FEW028 02/01 Q1032
TAF EGPK 182258Z 1900/1924 06007KT 9999 FEW020 
     TEMPO 1900/1906 7000